sensor_id;sensor_type;location;lat;lon;timestamp;temperature;humidity
16976;DHT22;8604;48.148;-1.786;2023-02-28T00:02:25;1.70;99.90
16976;DHT22;8604;48.148;-1.786;2023-02-28T00:04:55;1.70;99.90
16976;DHT22;8604;48.148;-1.786;2023-02-28T00:07:29;1.60;99.90
16976;DHT22;8604;48.148;-1.786;2023-02-28T00:09:59;1.60;99.90
16976;DHT22;8604;48.148;-1.786;2023-02-28T00:12:28;1.60;99.90
16976;DHT22;8604;48.148;-1.786;2023-02-28T00:14:56;1.60;99.90
16976;DHT22;8604;48.148;-1.786;2023-02-28T00:17:25;1.50;99.90
16976;DHT22;8604;48.148;-1.786;2023-02-28T00:19:53;1.50;99.90
16976;DHT22;8604;48.148;-1.786;2023-02-28T00:22:22;1.50;99.90
16976;DHT22;8604;48.148;-1.786;2023-02-28T00:24:51;1.50;99.90
16976;DHT22;8604;48.148;-1.786;2023-02-28T00:27:20;1.40;99.90
16976;DHT22;8604;48.148;-1.786;2023-02-28T00:29:49;1.40;99.90
16976;DHT22;8604;48.148;-1.786;2023-02-28T00:32:17;1.40;99.90
16976;DHT22;8604;48.148;-1.786;2023-02-28T00:34:46;1.40;99.90
16976;DHT22;8604;48.148;-1.786;2023-02-28T00:37:15;1.40;99.90
16976;DHT22;8604;48.148;-1.786;2023-02-28T00:39:43;1.40;99.90
16976;DHT22;8604;48.148;-1.786;2023-02-28T00:42:12;1.40;99.90
16976;DHT22;8604;48.148;-1.786;2023-02-28T00:44:42;1.40;99.90
16976;DHT22;8604;48.148;-1.786;2023-02-28T00:47:11;1.40;99.90
16976;DHT22;8604;48.148;-1.786;2023-02-28T00:49:40;1.40;99.90
16976;DHT22;8604;48.148;-1.786;2023-02-28T00:52:09;1.40;99.90
16976;DHT22;8604;48.148;-1.786;2023-02-28T00:54:38;1.40;99.90
16976;DHT22;8604;48.148;-1.786;2023-02-28T00:57:07;1.40;99.90
16976;DHT22;8604;48.148;-1.786;2023-02-28T00:59:35;1.40;99.90
16976;DHT22;8604;48.148;-1.786;2023-02-28T01:02:07;1.40;99.90
16976;DHT22;8604;48.148;-1.786;2023-02-28T01:04:36;1.30;99.90
16976;DHT22;8604;48.148;-1.786;2023-02-28T01:07:05;1.40;99.90
16976;DHT22;8604;48.148;-1.786;2023-02-28T01:09:33;1.30;99.90
16976;DHT22;8604;48.148;-1.786;2023-02-28T01:12:02;1.30;99.90
16976;DHT22;8604;48.148;-1.786;2023-02-28T01:14:30;1.30;99.90
16976;DHT22;8604;48.148;-1.786;2023-02-28T01:16:58;1.30;99.90
16976;DHT22;8604;48.148;-1.786;2023-02-28T01:19:28;1.20;99.90
16976;DHT22;8604;48.148;-1.786;2023-02-28T01:21:57;1.10;99.90
16976;DHT22;8604;48.148;-1.786;2023-02-28T01:24:28;1.20;99.90
16976;DHT22;8604;48.148;-1.786;2023-02-28T01:27:00;1.20;99.90
16976;DHT22;8604;48.148;-1.786;2023-02-28T01:29:29;1.20;99.90
16976;DHT22;8604;48.148;-1.786;2023-02-28T01:31:57;1.20;99.90
16976;DHT22;8604;48.148;-1.786;2023-02-28T01:34:28;1.20;99.90
16976;DHT22;8604;48.148;-1.786;2023-02-28T01:36:56;1.20;99.90
16976;DHT22;8604;48.148;-1.786;2023-02-28T01:39:25;1.20;99.90
16976;DHT22;8604;48.148;-1.786;2023-02-28T01:41:54;1.20;99.90
16976;DHT22;8604;48.148;-1.786;2023-02-28T01:44:58;1.20;99.90
16976;DHT22;8604;48.148;-1.786;2023-02-28T01:47:30;1.20;99.90
16976;DHT22;8604;48.148;-1.786;2023-02-28T01:50:02;1.20;99.90
16976;DHT22;8604;48.148;-1.786;2023-02-28T01:52:33;1.10;99.90
16976;DHT22;8604;48.148;-1.786;2023-02-28T01:55:05;1.10;99.90
16976;DHT22;8604;48.148;-1.786;2023-02-28T01:57:38;1.10;99.90
16976;DHT22;8604;48.148;-1.786;2023-02-28T02:00:10;1.00;99.90
16976;DHT22;8604;48.148;-1.786;2023-02-28T02:02:48;1.00;99.90
16976;DHT22;8604;48.148;-1.786;2023-02-28T02:05:21;0.90;99.90
16976;DHT22;8604;48.148;-1.786;2023-02-28T02:07:55;0.90;99.90
16976;DHT22;8604;48.148;-1.786;2023-02-28T02:10:31;0.90;99.90
16976;DHT22;8604;48.148;-1.786;2023-02-28T02:13:13;0.90;99.90
16976;DHT22;8604;48.148;-1.786;2023-02-28T02:15:46;0.90;99.90
16976;DHT22;8604;48.148;-1.786;2023-02-28T02:18:27;0.90;99.90
16976;DHT22;8604;48.148;-1.786;2023-02-28T02:21:18;0.90;99.90
16976;DHT22;8604;48.148;-1.786;2023-02-28T02:24:11;0.80;99.90
16976;DHT22;8604;48.148;-1.786;2023-02-28T02:26:55;0.90;99.90
16976;DHT22;8604;48.148;-1.786;2023-02-28T02:32:51;0.80;99.90
16976;DHT22;8604;48.148;-1.786;2023-02-28T02:35:25;0.80;99.90
16976;DHT22;8604;48.148;-1.786;2023-02-28T02:38:04;0.80;99.90
16976;DHT22;8604;48.148;-1.786;2023-02-28T02:40:39;0.80;99.90
16976;DHT22;8604;48.148;-1.786;2023-02-28T02:43:13;0.80;99.90
16976;DHT22;8604;48.148;-1.786;2023-02-28T02:45:46;0.80;99.90
16976;DHT22;8604;48.148;-1.786;2023-02-28T02:48:19;0.80;99.90
16976;DHT22;8604;48.148;-1.786;2023-02-28T02:50:52;0.80;99.90
16976;DHT22;8604;48.148;-1.786;2023-02-28T02:53:25;0.70;99.90
16976;DHT22;8604;48.148;-1.786;2023-02-28T02:55:56;0.70;99.90
16976;DHT22;8604;48.148;-1.786;2023-02-28T02:58:29;0.60;99.90
16976;DHT22;8604;48.148;-1.786;2023-02-28T03:01:01;0.60;99.90
16976;DHT22;8604;48.148;-1.786;2023-02-28T03:03:35;0.60;99.90
16976;DHT22;8604;48.148;-1.786;2023-02-28T03:06:05;0.60;99.90
16976;DHT22;8604;48.148;-1.786;2023-02-28T03:08:37;0.60;99.90
16976;DHT22;8604;48.148;-1.786;2023-02-28T03:11:11;0.60;99.90
16976;DHT22;8604;48.148;-1.786;2023-02-28T03:14:01;0.60;99.90
16976;DHT22;8604;48.148;-1.786;2023-02-28T03:16:35;0.60;99.90
16976;DHT22;8604;48.148;-1.786;2023-02-28T03:19:24;0.60;99.90
16976;DHT22;8604;48.148;-1.786;2023-02-28T03:22:14;0.60;99.90
16976;DHT22;8604;48.148;-1.786;2023-02-28T03:24:49;0.60;99.90
16976;DHT22;8604;48.148;-1.786;2023-02-28T03:27:24;0.50;99.90
16976;DHT22;8604;48.148;-1.786;2023-02-28T03:30:00;0.50;99.90
16976;DHT22;8604;48.148;-1.786;2023-02-28T03:32:33;0.50;99.90
16976;DHT22;8604;48.148;-1.786;2023-02-28T03:35:11;0.50;99.90
16976;DHT22;8604;48.148;-1.786;2023-02-28T03:37:45;0.50;99.90
16976;DHT22;8604;48.148;-1.786;2023-02-28T03:42:48;0.40;99.90
16976;DHT22;8604;48.148;-1.786;2023-02-28T03:45:21;0.40;99.90
16976;DHT22;8604;48.148;-1.786;2023-02-28T03:47:53;0.40;99.90
16976;DHT22;8604;48.148;-1.786;2023-02-28T03:50:24;0.40;99.90
16976;DHT22;8604;48.148;-1.786;2023-02-28T03:52:57;0.40;99.90
16976;DHT22;8604;48.148;-1.786;2023-02-28T03:55:30;0.40;99.90
16976;DHT22;8604;48.148;-1.786;2023-02-28T03:58:05;0.40;99.90
16976;DHT22;8604;48.148;-1.786;2023-02-28T04:00:39;0.40;99.90
16976;DHT22;8604;48.148;-1.786;2023-02-28T04:03:09;0.40;99.90
16976;DHT22;8604;48.148;-1.786;2023-02-28T04:05:47;0.40;99.90
16976;DHT22;8604;48.148;-1.786;2023-02-28T04:08:18;0.50;99.90
16976;DHT22;8604;48.148;-1.786;2023-02-28T04:10:51;0.40;99.90
16976;DHT22;8604;48.148;-1.786;2023-02-28T04:13:22;0.40;99.90
16976;DHT22;8604;48.148;-1.786;2023-02-28T04:15:50;0.30;99.90
16976;DHT22;8604;48.148;-1.786;2023-02-28T04:18:19;0.30;99.90
16976;DHT22;8604;48.148;-1.786;2023-02-28T04:20:47;0.30;99.90
16976;DHT22;8604;48.148;-1.786;2023-02-28T04:23:16;0.30;99.90
16976;DHT22;8604;48.148;-1.786;2023-02-28T04:25:45;0.30;99.90
16976;DHT22;8604;48.148;-1.786;2023-02-28T04:28:14;0.30;99.90
16976;DHT22;8604;48.148;-1.786;2023-02-28T04:30:42;0.30;99.90
16976;DHT22;8604;48.148;-1.786;2023-02-28T04:33:11;0.30;99.90
16976;DHT22;8604;48.148;-1.786;2023-02-28T04:35:39;0.30;99.90
16976;DHT22;8604;48.148;-1.786;2023-02-28T04:38:08;0.20;99.90
16976;DHT22;8604;48.148;-1.786;2023-02-28T04:40:36;0.30;99.90
16976;DHT22;8604;48.148;-1.786;2023-02-28T04:43:06;0.20;99.90
16976;DHT22;8604;48.148;-1.786;2023-02-28T04:45:35;0.20;99.90
16976;DHT22;8604;48.148;-1.786;2023-02-28T04:48:03;0.20;99.90
16976;DHT22;8604;48.148;-1.786;2023-02-28T04:50:32;0.20;99.90
16976;DHT22;8604;48.148;-1.786;2023-02-28T04:53:01;0.20;99.90
16976;DHT22;8604;48.148;-1.786;2023-02-28T04:55:29;0.10;99.90
16976;DHT22;8604;48.148;-1.786;2023-02-28T04:57:58;0.10;99.90
16976;DHT22;8604;48.148;-1.786;2023-02-28T05:00:27;0.10;99.90
16976;DHT22;8604;48.148;-1.786;2023-02-28T05:02:56;0.10;99.90
16976;DHT22;8604;48.148;-1.786;2023-02-28T05:05:24;0.20;99.90
16976;DHT22;8604;48.148;-1.786;2023-02-28T05:07:55;0.20;99.90
16976;DHT22;8604;48.148;-1.786;2023-02-28T05:10:24;0.10;99.90
16976;DHT22;8604;48.148;-1.786;2023-02-28T05:12:52;0.10;99.90
16976;DHT22;8604;48.148;-1.786;2023-02-28T05:15:21;0.20;99.90
16976;DHT22;8604;48.148;-1.786;2023-02-28T05:17:51;0.10;99.90
16976;DHT22;8604;48.148;-1.786;2023-02-28T05:20:20;0.10;99.90
16976;DHT22;8604;48.148;-1.786;2023-02-28T05:22:49;0.10;99.90
16976;DHT22;8604;48.148;-1.786;2023-02-28T05:25:21;0.10;99.90
16976;DHT22;8604;48.148;-1.786;2023-02-28T05:27:51;0.10;99.90
16976;DHT22;8604;48.148;-1.786;2023-02-28T05:30:21;0.00;99.90
16976;DHT22;8604;48.148;-1.786;2023-02-28T05:32:51;0.10;99.90
16976;DHT22;8604;48.148;-1.786;2023-02-28T05:35:20;0.10;99.90
16976;DHT22;8604;48.148;-1.786;2023-02-28T05:37:49;0.00;99.90
16976;DHT22;8604;48.148;-1.786;2023-02-28T05:40:18;0.10;99.90
16976;DHT22;8604;48.148;-1.786;2023-02-28T05:42:47;0.00;99.90
16976;DHT22;8604;48.148;-1.786;2023-02-28T05:45:16;0.00;99.90
16976;DHT22;8604;48.148;-1.786;2023-02-28T05:47:44;0.00;99.90
16976;DHT22;8604;48.148;-1.786;2023-02-28T05:50:14;-0.10;99.90
16976;DHT22;8604;48.148;-1.786;2023-02-28T05:52:43;-0.10;99.90
16976;DHT22;8604;48.148;-1.786;2023-02-28T05:55:11;-0.10;99.90
16976;DHT22;8604;48.148;-1.786;2023-02-28T05:57:40;-0.10;99.90
16976;DHT22;8604;48.148;-1.786;2023-02-28T06:00:10;-0.20;99.90
16976;DHT22;8604;48.148;-1.786;2023-02-28T06:02:44;-0.20;99.90
16976;DHT22;8604;48.148;-1.786;2023-02-28T06:05:18;-0.20;99.90
16976;DHT22;8604;48.148;-1.786;2023-02-28T06:07:46;-0.20;99.90
16976;DHT22;8604;48.148;-1.786;2023-02-28T06:10:15;-0.30;99.90
16976;DHT22;8604;48.148;-1.786;2023-02-28T06:12:43;-0.30;99.90
16976;DHT22;8604;48.148;-1.786;2023-02-28T06:15:14;-0.30;99.90
16976;DHT22;8604;48.148;-1.786;2023-02-28T06:17:45;-0.30;99.90
16976;DHT22;8604;48.148;-1.786;2023-02-28T06:20:14;-0.30;99.90
16976;DHT22;8604;48.148;-1.786;2023-02-28T06:22:44;-0.30;99.90
16976;DHT22;8604;48.148;-1.786;2023-02-28T06:25:13;-0.30;99.90
16976;DHT22;8604;48.148;-1.786;2023-02-28T06:27:41;-0.30;99.90
16976;DHT22;8604;48.148;-1.786;2023-02-28T06:30:11;-0.30;99.90
16976;DHT22;8604;48.148;-1.786;2023-02-28T06:32:39;-0.30;99.90
16976;DHT22;8604;48.148;-1.786;2023-02-28T06:35:08;-0.30;99.90
16976;DHT22;8604;48.148;-1.786;2023-02-28T06:37:37;-0.30;99.90
16976;DHT22;8604;48.148;-1.786;2023-02-28T06:40:10;-0.30;99.90
16976;DHT22;8604;48.148;-1.786;2023-02-28T06:42:40;-0.30;99.90
16976;DHT22;8604;48.148;-1.786;2023-02-28T06:45:09;-0.30;99.90
16976;DHT22;8604;48.148;-1.786;2023-02-28T08:40:44;6.40;99.90
16976;DHT22;8604;48.148;-1.786;2023-02-28T08:43:32;6.90;99.90
16976;DHT22;8604;48.148;-1.786;2023-02-28T08:52:17;7.70;99.90
16976;DHT22;8604;48.148;-1.786;2023-02-28T13:33:37;9.80;99.90
16976;DHT22;8604;48.148;-1.786;2023-02-28T14:40:52;7.80;99.90
16976;DHT22;8604;48.148;-1.786;2023-02-28T14:43:59;7.80;99.90
16976;DHT22;8604;48.148;-1.786;2023-02-28T14:46:55;7.70;99.90
16976;DHT22;8604;48.148;-1.786;2023-02-28T14:55:37;7.50;99.90
16976;DHT22;8604;48.148;-1.786;2023-02-28T15:16:00;6.80;99.90
16976;DHT22;8604;48.148;-1.786;2023-02-28T15:19:25;6.60;99.90
16976;DHT22;8604;48.148;-1.786;2023-02-28T15:23:41;6.60;99.90
16976;DHT22;8604;48.148;-1.786;2023-02-28T15:27:34;6.60;99.90
16976;DHT22;8604;48.148;-1.786;2023-02-28T15:31:28;6.60;99.90
16976;DHT22;8604;48.148;-1.786;2023-02-28T15:34:54;6.50;99.90
16976;DHT22;8604;48.148;-1.786;2023-02-28T15:37:39;6.50;99.90
16976;DHT22;8604;48.148;-1.786;2023-02-28T15:40:16;6.50;99.90
16976;DHT22;8604;48.148;-1.786;2023-02-28T15:44:12;6.40;99.90
16976;DHT22;8604;48.148;-1.786;2023-02-28T15:46:59;6.30;99.90
16976;DHT22;8604;48.148;-1.786;2023-02-28T15:49:40;6.30;99.90
16976;DHT22;8604;48.148;-1.786;2023-02-28T15:52:37;6.30;99.90
16976;DHT22;8604;48.148;-1.786;2023-02-28T15:55:39;6.20;99.90
16976;DHT22;8604;48.148;-1.786;2023-02-28T16:02:37;6.20;99.90
16976;DHT22;8604;48.148;-1.786;2023-02-28T16:05:20;6.30;99.90
16976;DHT22;8604;48.148;-1.786;2023-02-28T16:07:56;6.20;99.90
16976;DHT22;8604;48.148;-1.786;2023-02-28T16:10:28;6.30;99.90
16976;DHT22;8604;48.148;-1.786;2023-02-28T16:13:02;6.30;99.90
16976;DHT22;8604;48.148;-1.786;2023-02-28T16:15:49;6.30;99.90
16976;DHT22;8604;48.148;-1.786;2023-02-28T16:18:20;6.30;99.90
16976;DHT22;8604;48.148;-1.786;2023-02-28T16:20:59;6.30;99.90
16976;DHT22;8604;48.148;-1.786;2023-02-28T16:23:28;6.30;99.90
16976;DHT22;8604;48.148;-1.786;2023-02-28T16:25:58;6.30;99.90
16976;DHT22;8604;48.148;-1.786;2023-02-28T16:28:30;6.30;99.90
16976;DHT22;8604;48.148;-1.786;2023-02-28T16:31:01;6.30;99.90
16976;DHT22;8604;48.148;-1.786;2023-02-28T16:33:32;6.30;99.90
16976;DHT22;8604;48.148;-1.786;2023-02-28T16:36:28;6.40;99.90
16976;DHT22;8604;48.148;-1.786;2023-02-28T16:38:57;6.40;99.90
16976;DHT22;8604;48.148;-1.786;2023-02-28T16:41:27;6.40;99.90
16976;DHT22;8604;48.148;-1.786;2023-02-28T16:43:59;6.40;99.90
16976;DHT22;8604;48.148;-1.786;2023-02-28T16:46:31;6.30;99.90
16976;DHT22;8604;48.148;-1.786;2023-02-28T16:49:03;6.30;99.90
16976;DHT22;8604;48.148;-1.786;2023-02-28T16:51:32;6.20;99.90
16976;DHT22;8604;48.148;-1.786;2023-02-28T16:54:02;6.20;99.90
16976;DHT22;8604;48.148;-1.786;2023-02-28T16:56:31;6.20;99.90
16976;DHT22;8604;48.148;-1.786;2023-02-28T16:59:56;6.20;99.90
16976;DHT22;8604;48.148;-1.786;2023-02-28T17:03:20;6.10;99.90
16976;DHT22;8604;48.148;-1.786;2023-02-28T19:39:13;3.80;99.90
16976;DHT22;8604;48.148;-1.786;2023-02-28T19:42:32;3.50;99.90
16976;DHT22;8604;48.148;-1.786;2023-02-28T19:45:14;3.40;99.90
16976;DHT22;8604;48.148;-1.786;2023-02-28T19:48:13;3.40;99.90
16976;DHT22;8604;48.148;-1.786;2023-02-28T19:51:07;3.30;99.90
16976;DHT22;8604;48.148;-1.786;2023-02-28T19:54:06;3.40;99.90
16976;DHT22;8604;48.148;-1.786;2023-02-28T19:56:41;3.30;99.90
16976;DHT22;8604;48.148;-1.786;2023-02-28T19:59:16;3.30;99.90
16976;DHT22;8604;48.148;-1.786;2023-02-28T20:02:12;3.30;99.90
16976;DHT22;8604;48.148;-1.786;2023-02-28T20:04:41;3.30;99.90
16976;DHT22;8604;48.148;-1.786;2023-02-28T20:07:10;3.30;99.90
16976;DHT22;8604;48.148;-1.786;2023-02-28T20:09:39;3.40;99.90
16976;DHT22;8604;48.148;-1.786;2023-02-28T20:12:09;3.40;99.90
16976;DHT22;8604;48.148;-1.786;2023-02-28T20:14:50;3.40;99.90
16976;DHT22;8604;48.148;-1.786;2023-02-28T20:17:19;3.40;99.90
16976;DHT22;8604;48.148;-1.786;2023-02-28T20:19:50;3.30;99.90
16976;DHT22;8604;48.148;-1.786;2023-02-28T20:22:19;3.30;99.90
16976;DHT22;8604;48.148;-1.786;2023-02-28T20:24:48;3.30;99.90
16976;DHT22;8604;48.148;-1.786;2023-02-28T22:33:02;2.20;99.90
16976;DHT22;8604;48.148;-1.786;2023-02-28T22:35:31;2.10;99.90
16976;DHT22;8604;48.148;-1.786;2023-02-28T22:37:59;2.10;99.90
16976;DHT22;8604;48.148;-1.786;2023-02-28T22:40:28;2.10;99.90
16976;DHT22;8604;48.148;-1.786;2023-02-28T22:42:56;2.10;99.90
16976;DHT22;8604;48.148;-1.786;2023-02-28T22:45:25;2.10;99.90
16976;DHT22;8604;48.148;-1.786;2023-02-28T22:47:53;2.10;99.90
16976;DHT22;8604;48.148;-1.786;2023-02-28T22:50:23;2.00;99.90
16976;DHT22;8604;48.148;-1.786;2023-02-28T22:52:51;2.10;99.90
16976;DHT22;8604;48.148;-1.786;2023-02-28T22:55:20;2.00;99.90
16976;DHT22;8604;48.148;-1.786;2023-02-28T22:57:48;2.10;99.90
16976;DHT22;8604;48.148;-1.786;2023-02-28T23:00:18;2.00;99.90
16976;DHT22;8604;48.148;-1.786;2023-02-28T23:02:47;2.00;99.90
16976;DHT22;8604;48.148;-1.786;2023-02-28T23:05:16;2.10;99.90
16976;DHT22;8604;48.148;-1.786;2023-02-28T23:07:46;2.00;99.90
16976;DHT22;8604;48.148;-1.786;2023-02-28T23:10:16;2.00;99.90
16976;DHT22;8604;48.148;-1.786;2023-02-28T23:12:45;1.90;99.90
16976;DHT22;8604;48.148;-1.786;2023-02-28T23:15:19;2.00;99.90
16976;DHT22;8604;48.148;-1.786;2023-02-28T23:17:48;1.90;99.90
16976;DHT22;8604;48.148;-1.786;2023-02-28T23:20:19;1.90;99.90
16976;DHT22;8604;48.148;-1.786;2023-02-28T23:22:49;1.90;99.90
16976;DHT22;8604;48.148;-1.786;2023-02-28T23:25:19;1.90;99.90
16976;DHT22;8604;48.148;-1.786;2023-02-28T23:27:48;1.80;99.90
16976;DHT22;8604;48.148;-1.786;2023-02-28T23:30:17;1.80;99.90
16976;DHT22;8604;48.148;-1.786;2023-02-28T23:32:45;1.80;99.90
16976;DHT22;8604;48.148;-1.786;2023-02-28T23:35:15;1.80;99.90
16976;DHT22;8604;48.148;-1.786;2023-02-28T23:37:43;1.80;99.90
16976;DHT22;8604;48.148;-1.786;2023-02-28T23:40:15;1.70;99.90
16976;DHT22;8604;48.148;-1.786;2023-02-28T23:42:43;1.70;99.90
16976;DHT22;8604;48.148;-1.786;2023-02-28T23:45:12;1.70;99.90
16976;DHT22;8604;48.148;-1.786;2023-02-28T23:47:40;1.70;99.90
16976;DHT22;8604;48.148;-1.786;2023-02-28T23:50:09;1.70;99.90
16976;DHT22;8604;48.148;-1.786;2023-02-28T23:52:38;1.70;99.90
16976;DHT22;8604;48.148;-1.786;2023-02-28T23:55:07;1.70;99.90
16976;DHT22;8604;48.148;-1.786;2023-02-28T23:57:37;1.60;99.90
